الصفحة الرئيسية
METAR-TAF:

METAR-TAF

مطار :

أوديسا, أوكرانيا

دائرة عرض: 46-26N, خط طول: 030-46E, ارتفاع: 42 متر

مراقبة الطقس الحالي

تاريخ ووقت الإصدار 34 دقيقة قبل الساعة 00:00UTC
ريح 6 عقدة من الشمال الشرقي
درجة الحرارة 14°درجة مئوية
الرطوبة 77%
ضغط 1023 hPa
الرؤية 10 كم أو أكثر
الغيوم لا تقل 1500 م ولا وجود لمزنة ركامية السحاب الأسود

METAR: UKOO 170000Z 05003MPS CAVOK 14/10 Q1023 R34/090060 NOSIG

زمن: 03:34 (00:34 UTC)

توقعات

تاريخ ووقت الإصدار 1ساعة و 32 دقيقة قبل الساعة 23:02UTC
التوقعات صالحة من17 الساعة 00 UTC إلى 17 الساعة 24 UTC
ريح 6 عقدة من الشرق/الشمال الشرقي
الرؤية 10 كم أو أكثر
الغيوم لا تقل 1500 م ولا وجود لمزنة ركامية السحاب الأسود
مؤقت
من 17 الساعة 00 UTC إلى 17 الساعة 06 UTC
الرؤية: 2100 متر
دخان, غشاء
أصبح
من 17 الساعة 06 UTC إلى 17 الساعة 07 UTC
ريح 12 عقدة من الشرق/الشمال الشرقي تتزايد حتى 23 عقدة

TAF: UKOO 162302Z 1700/1724 07003MPS CAVOK TEMPO 1700/1706 2100 FU BR BECMG 1706/1707 07006G12MPS

أرصاد الطقس والتوقعات من أكثر من 4000 مطار (تقارير الطقس للمطار METAR والتنبؤ بالطقس بالمطارTAF).

المحطات المتاحة هي النقط الصفراء والحمراء على الخريطة.

حرك المؤشر فوق النقطة لمعرفة اسم المحطة.

ثم انقر لمعرفة أرصاد وتوقعات الطقس.

لتغيير الخارطة: اضغط على الأزرار الخضراء مع رمز الصليب الأسود للتكبير. على الزر الأخضر مع شرطة للتصغير، أو على الأسهم الخضراء للخرائط المجاورة.


METAR-TAF: